Time;durP1;ratioP1;P1;durP2;ratioP2;P2;SDS_P1;SDS_P2;PMS_P1;PMS_P2;Temp;Humidity;BMP_temperature;BMP_pressure;BME280_temperature;BME280_humidity;BME280_pressure;Samples;Min_cycle;Max_cycle;Signal;HPM_P1;HPM_P2
2022/01/16 00:06:51;;;;;;;3.03;1.40;;;;;;;-1.95;84.22;99689.63;10174728;29;20050;-73
2022/01/16 00:11:55;;;;;;;3.40;1.40;;;;;;;-1.98;84.37;99676.00;10174905;29;20044;-72
2022/01/16 00:16:56;;;;;;;;;;;;;;;-1.98;84.51;99665.59;10172105;29;20072;-72
2022/01/16 00:21:58;;;;;;;4.85;1.40;;;;;;;-2.07;84.43;99654.03;10173695;29;19958;-72
2022/01/16 00:26:59;;;;;;;4.45;1.10;;;;;;;-2.16;84.34;99639.03;10173373;29;20051;-72
2022/01/16 00:31:59;;;;;;;3.58;1.35;;;;;;;-2.15;84.04;99643.34;10173201;29;20040;-72
2022/01/16 00:37:00;;;;;;;3.05;1.38;;;;;;;-2.35;83.89;99593.47;10165490;29;20135;-72
2022/01/16 00:42:01;;;;;;;2.08;0.73;;;;;;;-2.22;83.76;99611.66;10140281;29;20064;-72
2022/01/16 00:47:02;;;;;;;2.97;1.08;;;;;;;-2.57;83.00;99534.28;10133242;29;20060;-73
2022/01/16 00:52:03;;;;;;;2.80;0.80;;;;;;;-2.58;82.61;99526.56;10134239;29;20071;-72
2022/01/16 00:57:05;;;;;;;1.80;0.80;;;;;;;-2.10;82.17;99605.63;10133812;29;20107;-72
2022/01/16 01:02:06;;;;;;;2.97;0.85;;;;;;;-1.83;82.01;99612.47;10133858;29;20536;-72
2022/01/16 01:07:07;;;;;;;3.40;0.80;;;;;;;-2.05;82.27;99581.06;10133067;29;20051;-72
2022/01/16 01:12:10;;;;;;;4.10;1.13;;;;;;;-1.71;81.69;99634.22;10133760;29;20409;-73
2022/01/16 01:17:20;;;;;;;5.55;0.90;;;;;;;-1.95;81.48;99597.69;10133636;29;20059;-72
2022/01/16 01:22:22;;;;;;;3.85;0.77;;;;;;;-1.82;81.92;99624.56;10132899;29;20053;-72
2022/01/16 01:27:26;;;;;;;2.80;0.80;;;;;;;-1.43;81.63;99667.81;10132897;29;20044;-72
2022/01/16 01:32:29;;;;;;;3.75;0.80;;;;;;;-2.39;80.36;99513.16;10139597;29;20505;-72
2022/01/16 01:37:29;;;;;;;2.60;0.73;;;;;;;-1.25;79.89;99634.41;10141069;29;20055;-73
2022/01/16 01:42:32;;;;;;;1.65;0.63;;;;;;;-2.10;79.89;99519.75;10141009;29;20045;-73
2022/01/16 01:52:53;;;;;;;2.22;0.60;;;;;;;-1.35;80.85;99622.97;10140388;29;20048;-72
2022/01/16 01:57:54;;;;;;;4.50;0.70;;;;;;;-1.73;80.62;99592.66;10139410;29;20044;-72
2022/01/16 02:08:05;;;;;;;1.42;0.40;;;;;;;-1.39;81.15;99669.25;10139457;29;20047;-72
2022/01/16 02:13:09;;;;;;;0.85;0.22;;;;;;;-1.36;81.00;99646.53;10140184;29;20044;-72
2022/01/16 02:29:28;;;;;;;2.35;0.80;;;;;;;-2.10;81.44;99548.38;10139602;29;20078;-72
2022/01/16 02:39:38;;;;;;;2.47;0.52;;;;;;;-1.40;80.44;99709.28;10138582;29;20540;-72
2022/01/16 02:44:47;;;;;;;2.30;0.63;;;;;;;-1.22;80.92;99733.22;10137914;29;20057;-72
2022/01/16 02:49:48;;;;;;;2.47;0.77;;;;;;;-1.31;80.96;99733.03;10139079;29;20466;-72
2022/01/16 02:54:51;;;;;;;1.17;0.50;;;;;;;-2.02;80.96;99627.69;10137549;29;20076;-72
2022/01/16 02:59:56;;;;;;;8.90;1.08;;;;;;;-1.64;80.97;99685.78;10138201;29;20055;-72
2022/01/16 03:04:57;;;;;;;1.38;0.68;;;;;;;-1.00;80.76;99766.41;10137216;29;20493;-72
2022/01/16 03:15:21;;;;;;;2.30;0.70;;;;;;;-1.65;80.03;99652.00;10137061;29;20048;-72
2022/01/16 03:25:42;;;;;;;3.08;0.80;;;;;;;-1.41;79.90;99671.16;10137266;29;20045;-72
2022/01/16 03:30:43;;;;;;;4.30;0.95;;;;;;;-0.64;79.86;99795.19;10137247;29;20128;-72
2022/01/16 03:35:44;;;;;;;3.08;0.93;;;;;;;-0.64;79.54;99801.25;10137125;29;20525;-72
2022/01/16 03:40:45;;;;;;;6.68;1.42;;;;;;;-0.61;80.37;99829.72;10136386;29;20045;-73
2022/01/16 03:45:47;;;;;;;4.45;1.15;;;;;;;-1.49;80.33;99707.31;10136921;29;20417;-74
2022/01/16 03:50:48;;;;;;;4.95;1.10;;;;;;;-1.79;80.21;99652.16;10136915;29;20048;-73
2022/01/16 03:55:49;;;;;;;3.53;1.00;;;;;;;-1.52;80.50;99698.88;10135655;29;20143;-72
2022/01/16 04:00:49;;;;;;;1.70;0.70;;;;;;;-1.60;81.11;99686.38;10134550;29;20563;-73
2022/01/16 04:05:50;;;;;;;2.42;0.57;;;;;;;-1.62;81.53;99698.66;10135961;29;20047;-72
2022/01/16 04:10:51;;;;;;;2.70;0.60;;;;;;;-0.74;81.40;99828.94;10135648;29;20044;-72
2022/01/16 04:15:52;;;;;;;0.70;0.30;;;;;;;-1.24;82.02;99762.91;10133796;29;20534;-73
2022/01/16 04:20:53;;;;;;;1.90;0.57;;;;;;;-1.58;81.66;99712.34;10134278;29;20138;-72
2022/01/16 04:25:54;;;;;;;1.83;0.80;;;;;;;-0.84;82.48;99852.19;10134144;29;20044;-72
2022/01/16 04:30:55;;;;;;;1.92;0.60;;;;;;;-1.39;82.45;99802.13;10156522;29;20036;-73
2022/01/16 04:35:56;;;;;;;2.67;0.82;;;;;;;-2.15;82.25;99690.16;10172897;29;20127;-73
2022/01/16 04:46:19;;;;;;;7.18;1.20;;;;;;;-1.14;83.03;99894.25;10141659;29;20060;-72
2022/01/16 04:51:21;;;;;;;9.27;1.63;;;;;;;-1.23;82.50;99866.22;10133422;29;20048;-72
2022/01/16 04:56:22;;;;;;;3.95;0.90;;;;;;;-1.72;83.08;99773.16;10133145;29;20401;-72
2022/01/16 05:01:23;;;;;;;3.72;1.00;;;;;;;-0.86;83.05;99914.06;10133381;29;20056;-72
2022/01/16 05:06:24;;;;;;;1.30;0.63;;;;;;;-1.00;82.38;99877.69;10133092;29;20048;-72
2022/01/16 05:11:26;;;;;;;2.88;0.93;;;;;;;-0.71;82.17;99923.44;10133826;29;20096;-72
2022/01/16 05:16:38;;;;;;;2.58;0.80;;;;;;;-0.81;82.45;99895.47;10133186;29;20417;-72
2022/01/16 05:21:40;;;;;;;2.25;0.90;;;;;;;-0.62;81.79;99916.75;10133666;29;20170;-73
2022/01/16 05:26:43;;;;;;;4.03;1.10;;;;;;;-0.66;81.75;99897.03;10134090;29;20052;-73
2022/01/16 05:31:47;;;;;;;1.60;0.93;;;;;;;-1.16;82.48;99808.34;10131487;29;20040;-73
2022/01/16 05:36:48;;;;;;;1.63;0.70;;;;;;;-1.03;82.54;99831.78;10136610;29;20507;-73
2022/01/16 05:41:50;;;;;;;1.95;0.90;;;;;;;-0.60;82.50;99922.72;10149767;29;20059;-72
2022/01/16 05:46:51;;;;;;;2.50;0.82;;;;;;;-0.16;82.34;99976.16;10141052;29;20560;-74
2022/01/16 05:51:52;;;;;;;2.67;1.00;;;;;;;-0.55;83.21;99922.38;10169663;29;20056;-72
2022/01/16 05:56:52;;;;;;;2.92;0.88;;;;;;;-0.18;83.40;99970.22;10172217;29;20417;-72
2022/01/16 06:01:54;;;;;;;2.60;1.10;;;;;;;0.18;83.43;100023.34;10168469;29;20040;-72
2022/01/16 06:06:55;;;;;;;3.05;1.10;;;;;;;0.16;82.56;100018.25;10170182;29;20051;-71
2022/01/16 06:11:57;;;;;;;6.57;1.40;;;;;;;-0.07;83.40;99990.31;10171853;29;20048;-72
2022/01/16 06:16:58;;;;;;;5.22;1.55;;;;;;;0.13;84.36;100023.69;10173966;29;20044;-73
2022/01/16 06:21:59;;;;;;;4.45;1.50;;;;;;;-0.02;86.06;100023.00;10178411;29;20052;-72
2022/01/16 06:27:00;;;;;;;4.28;1.70;;;;;;;-0.10;86.73;100003.59;10178134;29;20040;-72
2022/01/16 06:32:01;;;;;;;4.45;1.55;;;;;;;0.09;86.60;100045.78;10178539;29;20559;-72
2022/01/16 06:37:02;;;;;;;3.70;2.10;;;;;;;0.41;86.83;100042.63;10177332;29;20052;-73
2022/01/16 06:42:04;;;;;;;4.18;1.92;;;;;;;0.98;84.22;99988.78;10177030;29;20043;-73
2022/01/16 06:47:05;;;;;;;3.40;1.98;;;;;;;0.82;82.79;99924.56;10177212;29;20505;-73
2022/01/16 06:52:06;;;;;;;3.95;1.92;;;;;;;1.43;82.68;100022.88;10178018;29;20059;-72
2022/01/16 06:57:08;;;;;;;3.80;2.08;;;;;;;1.63;82.82;100032.66;10177261;29;20040;-73
2022/01/16 07:02:09;;;;;;;5.78;2.95;;;;;;;0.88;82.22;99928.50;10176273;29;20048;-74
2022/01/16 07:07:10;;;;;;;8.13;3.08;;;;;;;1.57;83.12;100070.59;10175596;29;20040;-73
2022/01/16 07:12:11;;;;;;;6.38;2.80;;;;;;;1.43;82.92;100055.09;10176483;29;20404;-73
2022/01/16 07:17:11;;;;;;;4.65;2.67;;;;;;;0.76;83.43;99952.97;10171129;29;20151;-74
2022/01/16 07:22:12;;;;;;;4.30;2.55;;;;;;;1.61;83.02;100060.72;10172927;29;20040;-73
2022/01/16 07:27:13;;;;;;;5.72;2.80;;;;;;;1.94;82.69;100108.84;10171556;29;20048;-73
2022/01/16 07:32:14;;;;;;;5.10;2.92;;;;;;;0.67;81.91;99849.91;10174656;29;20067;-73
2022/01/16 07:37:15;;;;;;;6.38;2.70;;;;;;;1.80;81.94;100063.63;10175968;29;20512;-73
2022/01/16 07:42:16;;;;;;;5.38;2.92;;;;;;;1.31;81.94;99995.84;10175228;29;20075;-74
2022/01/16 07:47:17;;;;;;;8.75;3.17;;;;;;;1.89;82.38;100127.56;10175050;29;20087;-74
2022/01/16 07:52:18;;;;;;;5.10;3.15;;;;;;;1.13;81.85;99941.34;10158675;29;20054;-73
2022/01/16 07:57:19;;;;;;;7.55;3.35;;;;;;;2.65;79.75;100010.56;10174223;29;20453;-75
2022/01/16 08:02:20;;;;;;;5.65;3.00;;;;;;;3.52;77.43;100075.13;10175198;29;20044;-73
2022/01/16 08:07:21;;;;;;;4.97;3.05;;;;;;;3.67;76.76;100094.84;10173468;29;20084;-73
2022/01/16 08:12:22;;;;;;;6.55;3.20;;;;;;;3.50;77.01;100070.03;10174914;29;20044;-72
2022/01/16 08:17:22;;;;;;;4.78;2.97;;;;;;;3.69;76.14;100076.34;10173648;29;20048;-72
2022/01/16 08:22:23;;;;;;;5.07;2.80;;;;;;;3.61;76.25;100059.41;10174863;29;20040;-72
2022/01/16 08:27:24;;;;;;;5.40;2.75;;;;;;;3.19;75.67;100011.34;10173827;29;20520;-71
2022/01/16 08:32:25;;;;;;;4.70;2.42;;;;;;;2.73;75.43;99997.66;10174331;29;20059;-70
2022/01/16 08:37:26;;;;;;;4.60;2.90;;;;;;;3.39;75.59;100091.91;10173678;29;20043;-71
2022/01/16 08:42:27;;;;;;;3.60;2.08;;;;;;;3.05;75.07;100057.16;10173232;29;20040;-71
2022/01/16 08:47:28;;;;;;;6.38;2.00;;;;;;;2.22;75.50;99905.75;10173087;29;20465;-71
2022/01/16 08:52:29;;;;;;;3.47;1.92;;;;;;;2.67;74.52;99948.31;10172651;29;20146;-70
2022/01/16 08:57:30;;;;;;;4.50;2.08;;;;;;;4.02;73.81;100078.69;10172927;29;20132;-71
2022/01/16 09:02:31;;;;;;;4.35;2.03;;;;;;;4.03;72.12;100058.50;10172922;29;20571;-71
2022/01/16 09:07:32;;;;;;;5.40;2.00;;;;;;;4.19;72.33;100105.31;10173198;29;20064;-71
2022/01/16 09:12:34;;;;;;;3.33;1.85;;;;;;;3.66;72.62;100024.88;10172682;29;20048;-72
2022/01/16 09:17:36;;;;;;;3.60;1.85;;;;;;;4.58;70.65;100101.03;10165919;29;20052;-71
2022/01/16 09:22:39;;;;;;;2.30;1.33;;;;;;;4.56;68.20;100051.16;10137385;29;20076;-72
2022/01/16 09:27:40;;;;;;;3.67;1.40;;;;;;;5.12;67.07;100102.31;10134156;29;20103;-72
2022/01/16 09:32:41;;;;;;;3.30;1.48;;;;;;;5.35;65.10;100094.13;10132782;29;20092;-71
2022/01/16 09:37:43;;;;;;;2.47;1.30;;;;;;;4.62;64.80;99962.97;10133662;29;22012;-72
2022/01/16 09:42:45;;;;;;;3.58;1.20;;;;;;;4.78;64.67;100018.47;10133834;29;20032;-72
2022/01/16 09:47:47;;;;;;;2.95;1.38;;;;;;;4.86;63.58;100041.50;10116610;29;20572;-72
2022/01/16 09:52:49;;;;;;;4.18;1.80;;;;;;;5.17;64.34;100101.88;10137839;29;20159;-71
2022/01/16 09:57:50;;;;;;;3.30;1.45;;;;;;;5.15;62.88;100093.31;10140027;29;20044;-72
2022/01/16 10:02:51;;;;;;;3.13;1.40;;;;;;;5.38;64.39;100094.66;10140201;29;20107;-72
2022/01/16 10:07:54;;;;;;;2.75;1.38;;;;;;;4.37;62.70;100024.84;10145928;29;20047;-71
2022/01/16 10:13:03;;;;;;;2.67;1.20;;;;;;;4.07;65.76;100092.28;10175700;29;20055;-72
2022/01/16 10:18:06;;;;;;;2.40;1.15;;;;;;;2.84;69.17;100056.25;10178047;29;20084;-71
2022/01/16 10:23:19;;;;;;;4.53;1.67;;;;;;;2.83;72.77;100123.63;10177678;29;20040;-73
2022/01/16 10:28:22;;;;;;;6.78;2.33;;;;;;;2.39;73.09;100166.50;10177648;29;20048;-72
2022/01/16 10:33:31;;;;;;;3.05;1.80;;;;;;;0.07;76.07;99953.63;10178177;29;20148;-71
2022/01/16 10:38:32;;;;;;;3.30;1.80;;;;;;;1.00;77.75;100186.50;10176819;29;20051;-71
2022/01/16 10:43:45;;;;;;;3.78;2.22;;;;;;;0.16;77.44;100033.94;10177579;29;20424;-72
2022/01/16 10:48:45;;;;;;;3.83;2.38;;;;;;;1.24;76.97;100183.91;10178283;29;20523;-73
2022/01/16 10:53:46;;;;;;;5.03;2.90;;;;;;;0.97;77.55;100126.56;10177835;29;20052;-73
2022/01/16 10:58:49;;;;;;;4.43;2.78;;;;;;;0.72;77.55;100074.38;10176312;29;20036;-73
2022/01/16 11:03:53;;;;;;;4.90;2.97;;;;;;;0.99;77.79;100061.06;10175533;29;20193;-73
2022/01/16 11:08:56;;;;;;;4.03;2.60;;;;;;;2.30;76.26;100181.16;10176974;29;20072;-73
2022/01/16 11:14:00;;;;;;;6.38;3.47;;;;;;;2.60;73.65;100219.06;10177587;29;20051;-73
2022/01/16 11:19:02;;;;;;;5.15;3.00;;;;;;;2.31;73.82;100205.59;10167851;29;20092;-73
2022/01/16 11:29:32;;;;;;;5.75;2.40;;;;;;;2.23;71.99;100248.94;10128122;29;20457;-73
2022/01/16 11:34:34;;;;;;;4.15;1.90;;;;;;;1.70;71.25;100248.56;10136256;29;20055;-72
2022/01/16 11:39:37;;;;;;;2.60;1.58;;;;;;;1.35;71.77;100170.03;10136966;29;20045;-73
2022/01/16 11:44:37;;;;;;;4.28;1.85;;;;;;;1.48;70.25;100191.72;10137027;29;20052;-74
2022/01/16 11:49:43;;;;;;;3.13;1.50;;;;;;;1.63;69.52;100260.44;10136473;29;20056;-72
2022/01/16 11:54:49;;;;;;;3.30;1.70;;;;;;;1.51;70.77;100245.63;10135432;29;20655;-72
2022/01/16 11:59:54;;;;;;;2.72;1.33;;;;;;;1.89;70.09;100273.41;10135804;29;20052;-72
2022/01/16 12:04:59;;;;;;;8.20;2.15;;;;;;;0.11;71.85;100001.25;10135200;29;20573;-72
2022/01/16 12:10:00;;;;;;;3.35;1.70;;;;;;;1.22;71.35;100190.19;10136050;29;20528;-72
2022/01/16 12:15:05;;;;;;;3.28;1.85;;;;;;;1.69;71.78;100267.03;10143858;29;20068;-72
2022/01/16 12:20:17;;;;;;;4.13;2.08;;;;;;;1.65;71.66;100266.41;10174469;29;20047;-72
2022/01/16 12:25:39;;;;;;;4.82;2.40;;;;;;;1.64;71.56;100280.44;10172748;29;20051;-73
2022/01/16 12:30:55;;;;;;;6.22;2.17;;;;;;;1.45;71.37;100285.34;10154635;29;20139;-72
2022/01/16 12:36:05;;;;;;;3.22;2.00;;;;;;;0.91;72.44;100239.47;10148280;29;20408;-72
2022/01/16 12:41:11;;;;;;;4.40;2.50;;;;;;;1.18;72.87;100312.56;10169893;29;20048;-72
2022/01/16 12:46:16;;;;;;;4.25;2.38;;;;;;;0.43;72.85;100203.59;10170497;29;20060;-72
2022/01/16 12:51:18;;;;;;;;;;;;;;;1.02;72.98;100306.75;10169881;29;20048;-72
2022/01/16 12:56:27;;;;;;;4.82;2.58;;;;;;;0.13;71.65;100195.25;10169737;29;19923;-71
2022/01/16 13:01:28;;;;;;;3.65;2.05;;;;;;;0.32;71.47;100255.75;10171654;29;20402;-72
2022/01/16 13:06:32;;;;;;;3.60;1.85;;;;;;;0.73;71.12;100317.44;10172356;29;20044;-72
2022/01/16 13:11:38;;;;;;;4.47;2.03;;;;;;;0.14;71.34;100220.44;10170621;29;20143;-72
2022/01/16 13:16:41;;;;;;;4.50;2.50;;;;;;;-0.74;71.47;100097.56;10169789;29;20048;-73
2022/01/16 13:22:06;;;;;;;5.37;2.43;;;;;;;0.77;71.29;100345.03;10169055;29;20048;-74
2022/01/16 13:27:25;;;;;;;5.57;2.55;;;;;;;0.69;71.68;100363.03;10175453;29;20050;-73
2022/01/16 13:32:31;;;;;;;3.95;2.08;;;;;;;0.60;72.03;100361.88;10177659;29;20048;-73
2022/01/16 13:37:37;;;;;;;5.55;2.92;;;;;;;-0.07;73.74;100317.56;10176061;29;20456;-73
2022/01/16 13:48:15;;;;;;;3.90;1.50;;;;;;;-0.75;75.09;100291.50;10170987;29;20056;-75
2022/01/16 13:53:21;;;;;;;4.15;2.05;;;;;;;0.01;74.78;100423.31;10175751;29;20047;-74
2022/01/16 13:58:27;;;;;;;4.30;2.30;;;;;;;-0.15;74.62;100416.47;10172159;29;20036;-74
2022/01/16 14:03:29;;;;;;;3.50;2.08;;;;;;;-2.00;75.15;100165.47;10168106;29;20040;-74
2022/01/16 14:08:39;;;;;;;6.70;3.50;;;;;;;-0.35;75.52;100443.81;10165751;29;20082;-73
2022/01/16 14:13:52;;;;;;;5.32;2.00;;;;;;;-0.70;75.35;100402.47;10167688;29;20047;-74
2022/01/16 14:23:55;;;;;;;2.92;1.52;;;;;;;-0.57;75.79;100453.88;10169914;29;20076;-74
2022/01/16 14:28:57;;;;;;;1.95;0.98;;;;;;;-0.51;74.65;100466.56;10171714;29;20075;-73
2022/01/16 14:33:58;;;;;;;2.40;1.10;;;;;;;-0.38;74.64;100496.22;10165685;29;20130;-74
2022/01/16 14:38:59;;;;;;;2.78;1.33;;;;;;;-1.19;74.37;100371.56;10166663;29;20048;-74
2022/01/16 14:44:02;;;;;;;3.65;1.40;;;;;;;-1.41;75.09;100345.97;10163811;29;20051;-74
2022/01/16 14:49:03;;;;;;;4.15;1.77;;;;;;;-1.70;75.22;100331.22;10170042;29;20052;-74
2022/01/16 14:54:05;;;;;;;2.65;1.33;;;;;;;-0.58;75.54;100527.88;10168991;29;20095;-74
2022/01/16 14:59:09;;;;;;;5.70;1.40;;;;;;;-0.74;75.12;100520.97;10173017;29;20089;-73
2022/01/16 15:04:11;;;;;;;2.50;1.10;;;;;;;-0.98;75.09;100491.97;10172843;29;20044;-73
2022/01/16 15:09:13;;;;;;;3.47;1.45;;;;;;;-0.84;74.86;100532.88;10175623;29;20091;-73
2022/01/16 15:14:14;;;;;;;4.40;1.42;;;;;;;-1.02;74.72;100510.50;10172786;29;20040;-74
2022/01/16 15:19:18;;;;;;;3.17;1.45;;;;;;;-1.53;74.43;100450.88;10138019;29;20386;-71
2022/01/16 15:24:20;;;;;;;4.25;1.83;;;;;;;-1.27;75.08;100503.25;10145902;29;20044;-73
2022/01/16 15:29:21;;;;;;;3.47;1.70;;;;;;;-2.78;74.37;100263.63;10173714;29;20574;-74
2022/01/16 15:34:22;;;;;;;4.05;1.58;;;;;;;-1.77;74.52;100455.72;10154814;29;20047;-73
2022/01/16 15:39:25;;;;;;;4.63;1.35;;;;;;;-2.23;74.61;100401.03;10172570;29;20075;-74
2022/01/16 15:44:26;;;;;;;3.50;1.53;;;;;;;-1.48;75.23;100542.66;10171457;29;20508;-74
2022/01/16 15:49:27;;;;;;;4.45;1.90;;;;;;;-2.07;75.12;100453.88;10170167;29;20058;-73
2022/01/16 15:54:28;;;;;;;3.90;1.83;;;;;;;-2.42;75.50;100396.00;10168375;29;20044;-73
2022/01/16 15:59:30;;;;;;;4.82;1.88;;;;;;;-1.47;75.84;100557.34;10165908;29;20056;-73
2022/01/16 16:04:31;;;;;;;5.25;1.98;;;;;;;-1.83;75.25;100498.56;10165617;29;20083;-74
2022/01/16 16:09:32;;;;;;;4.07;1.80;;;;;;;-1.16;75.74;100610.38;10172132;29;20142;-74
2022/01/16 16:14:34;;;;;;;4.60;1.98;;;;;;;-1.34;75.57;100572.31;10165855;29;20052;-74
2022/01/16 16:19:35;;;;;;;3.03;1.67;;;;;;;-1.17;75.42;100598.25;10168179;29;20056;-74
2022/01/16 16:24:36;;;;;;;2.80;1.30;;;;;;;-0.89;75.39;100651.47;10168888;29;20039;-72
2022/01/16 16:29:37;;;;;;;3.58;1.50;;;;;;;-2.05;75.06;100456.41;10166869;29;20044;-73
2022/01/16 16:34:38;;;;;;;3.55;1.52;;;;;;;-0.99;75.75;100627.66;10168034;29;20420;-72
2022/01/16 16:39:40;;;;;;;4.53;1.58;;;;;;;-0.88;75.51;100653.13;10173466;29;20086;-73
2022/01/16 16:44:43;;;;;;;4.13;1.63;;;;;;;-1.13;75.57;100628.44;10170043;29;20056;-74
2022/01/16 16:49:45;;;;;;;3.13;1.38;;;;;;;-1.23;75.42;100615.06;10164763;29;20062;-73
2022/01/16 16:54:46;;;;;;;3.95;1.45;;;;;;;-1.54;75.86;100600.31;10173197;29;20048;-73
2022/01/16 16:59:47;;;;;;;2.95;1.38;;;;;;;-1.68;76.06;100605.41;10136990;29;20409;-73
2022/01/16 17:04:47;;;;;;;3.03;1.48;;;;;;;-1.54;76.16;100662.84;10134330;29;20036;-73
2022/01/16 17:09:48;;;;;;;3.33;1.40;;;;;;;-2.02;76.50;100612.44;10133578;29;20115;-73
2022/01/16 17:14:49;;;;;;;2.97;1.38;;;;;;;-2.26;77.11;100590.31;10133669;29;20048;-73
2022/01/16 17:19:50;;;;;;;3.33;1.52;;;;;;;-2.42;76.89;100559.03;10156000;29;20558;-73
2022/01/16 17:24:55;;;;;;;2.92;1.00;;;;;;;-1.64;76.35;100711.16;10164596;29;20051;-72
2022/01/16 17:29:56;;;;;;;1.83;0.93;;;;;;;-1.58;75.94;100695.19;10168415;29;20040;-73
2022/01/16 17:34:57;;;;;;;2.03;0.90;;;;;;;-2.47;75.78;100566.25;10166078;29;20119;-72
2022/01/16 17:39:58;;;;;;;2.38;1.02;;;;;;;-1.73;75.18;100698.63;10168105;29;20046;-72
2022/01/16 17:44:59;;;;;;;2.10;0.93;;;;;;;-3.32;75.57;100447.50;10163264;29;20070;-71
2022/01/16 17:50:00;;;;;;;2.75;0.90;;;;;;;-2.23;75.70;100648.25;10165568;29;20131;-71
2022/01/16 17:55:01;;;;;;;2.65;1.10;;;;;;;-3.55;75.88;100417.53;10157187;29;20048;-72
2022/01/16 18:00:03;;;;;;;5.90;1.20;;;;;;;-2.06;76.13;100660.41;10161227;29;20052;-72
2022/01/16 18:05:08;;;;;;;3.33;1.20;;;;;;;-1.53;75.34;100742.66;10166306;29;20052;-72
2022/01/16 18:10:12;;;;;;;3.10;1.30;;;;;;;-1.38;75.21;100749.69;10170365;29;20575;-72
2022/01/16 18:15:14;;;;;;;9.02;1.20;;;;;;;-2.41;74.86;100581.53;10174734;29;20044;-72
2022/01/16 18:20:16;;;;;;;2.50;1.00;;;;;;;-1.56;74.76;100705.50;10176727;29;20488;-72
2022/01/16 18:25:17;;;;;;;2.53;1.10;;;;;;;-3.08;74.68;100458.41;10175626;29;20416;-72
2022/01/16 18:30:18;;;;;;;2.58;0.70;;;;;;;-2.63;75.07;100532.38;10171723;29;20043;-72
2022/01/16 18:35:19;;;;;;;4.93;0.90;;;;;;;-1.55;74.95;100720.25;10176491;29;20040;-72
2022/01/16 18:40:19;;;;;;;4.95;1.40;;;;;;;-2.45;75.24;100587.81;10175862;29;20036;-73
2022/01/16 18:45:22;;;;;;;3.85;1.00;;;;;;;-3.04;75.01;100506.75;10175760;29;20032;-72
2022/01/16 18:50:24;;;;;;;2.97;0.90;;;;;;;-1.78;75.48;100718.84;10175516;29;20048;-71
2022/01/16 18:55:24;;;;;;;2.30;0.70;;;;;;;-2.03;75.65;100678.47;10175905;29;20043;-71
2022/01/16 19:00:26;;;;;;;2.33;0.85;;;;;;;-1.68;75.68;100761.72;10174473;29;20044;-72
2022/01/16 19:05:27;;;;;;;1.42;0.70;;;;;;;-2.60;75.97;100602.47;10173423;29;20078;-71
2022/01/16 19:10:28;;;;;;;2.60;1.00;;;;;;;-2.96;75.63;100555.72;10175175;29;20076;-71
2022/01/16 19:15:29;;;;;;;2.20;0.80;;;;;;;-2.03;75.84;100735.72;10173667;29;20074;-71
2022/01/16 19:20:30;;;;;;;2.40;1.00;;;;;;;-2.00;76.16;100735.56;10173389;29;20134;-71
2022/01/16 19:25:31;;;;;;;2.28;1.00;;;;;;;-1.83;76.48;100776.34;10176084;29;20059;-70
2022/01/16 19:30:36;;;;;;;3.10;1.10;;;;;;;-3.39;76.28;100527.50;10176018;29;20050;-70
2022/01/16 19:35:37;;;;;;;4.68;1.40;;;;;;;-1.85;76.26;100780.81;10175337;29;20044;-70
2022/01/16 19:40:39;;;;;;;3.15;1.20;;;;;;;-2.34;76.72;100700.81;10175117;29;20453;-71
2022/01/16 19:45:43;;;;;;;4.65;1.40;;;;;;;-1.86;77.05;100768.69;10175619;29;20191;-73
2022/01/16 19:50:46;;;;;;;3.25;1.63;;;;;;;-1.57;77.06;100801.06;10174882;29;20044;-71
2022/01/16 19:55:48;;;;;;;3.22;1.48;;;;;;;-2.23;77.25;100674.25;10175047;29;20138;-71
2022/01/16 20:00:51;;;;;;;4.60;1.50;;;;;;;-1.88;76.88;100742.75;10175172;29;20102;-71
2022/01/16 20:05:54;;;;;;;5.22;1.90;;;;;;;-1.76;77.20;100761.28;10174751;29;20048;-71
2022/01/16 20:10:56;;;;;;;3.53;1.50;;;;;;;-3.00;77.57;100579.28;10175255;29;20048;-73
2022/01/16 20:15:58;;;;;;;2.33;1.30;;;;;;;-1.96;77.16;100773.53;10174804;29;20512;-71
2022/01/16 20:20:59;;;;;;;3.88;1.73;;;;;;;-1.94;77.61;100802.97;10174128;29;20519;-70
2022/01/16 20:26:00;;;;;;;3.85;1.77;;;;;;;-2.38;78.18;100753.09;10174950;29;20036;-71
2022/01/16 20:31:01;;;;;;;2.70;1.30;;;;;;;-1.77;78.04;100832.50;10173383;29;20052;-71
2022/01/16 20:36:02;;;;;;;4.03;1.65;;;;;;;-1.69;78.47;100827.75;10163126;29;20122;-71
2022/01/16 20:41:03;;;;;;;4.40;2.38;;;;;;;-1.80;78.44;100804.00;10154063;29;20060;-72
2022/01/16 20:46:05;;;;;;;3.53;1.42;;;;;;;-1.96;78.46;100775.31;10145570;29;20059;-70
2022/01/16 20:51:06;;;;;;;5.18;2.38;;;;;;;-1.75;78.06;100817.66;10133545;29;20190;-70
2022/01/16 20:56:07;;;;;;;4.95;1.65;;;;;;;-2.64;77.41;100663.34;10133855;29;20123;-70
2022/01/16 21:01:09;;;;;;;5.18;1.63;;;;;;;-1.96;78.00;100793.53;10134307;29;20143;-70
2022/01/16 21:06:14;;;;;;;4.47;2.08;;;;;;;-1.73;77.93;100837.50;10134459;29;20047;-70
2022/01/16 21:11:16;;;;;;;5.03;1.40;;;;;;;-2.71;78.16;100669.75;10133216;29;20147;-72
2022/01/16 21:16:17;;;;;;;3.72;1.60;;;;;;;-1.72;78.01;100835.72;10133276;29;20104;-70
2022/01/16 21:21:18;;;;;;;3.25;1.67;;;;;;;-2.09;77.45;100768.13;10133296;29;20528;-70
2022/01/16 21:26:20;;;;;;;3.83;1.63;;;;;;;-2.69;77.78;100663.56;10133449;29;20048;-70
2022/01/16 21:31:21;;;;;;;4.13;2.00;;;;;;;-2.94;77.47;100621.47;10133965;29;20482;-70
2022/01/16 21:36:22;;;;;;;5.03;1.50;;;;;;;-1.81;77.23;100791.91;10132653;29;20037;-70
2022/01/16 21:41:23;;;;;;;4.88;1.60;;;;;;;-2.36;77.18;100700.06;10133173;29;20052;-70
2022/01/16 21:46:24;;;;;;;2.90;1.40;;;;;;;-2.47;76.55;100693.72;10133411;29;20067;-70
2022/01/16 21:51:25;;;;;;;2.80;1.50;;;;;;;-1.98;76.33;100785.78;10140781;29;20047;-72
2022/01/16 21:56:25;;;;;;;4.00;1.58;;;;;;;-2.40;76.89;100726.31;10140426;29;20068;-70
2022/01/16 22:01:27;;;;;;;3.60;1.70;;;;;;;-1.81;76.76;100828.38;10140228;29;20063;-72
2022/01/16 22:06:28;;;;;;;3.58;2.00;;;;;;;-2.64;77.04;100704.94;10139977;29;20096;-70
2022/01/16 22:11:31;;;;;;;3.22;1.50;;;;;;;-2.48;76.89;100728.44;10140560;29;20056;-70
2022/01/16 22:16:32;;;;;;;4.10;2.07;;;;;;;-2.01;76.52;100814.56;10148729;29;20505;-70
2022/01/16 22:21:33;;;;;;;4.72;2.35;;;;;;;-2.62;76.86;100740.38;10177712;29;20099;-70
2022/01/16 22:26:35;;;;;;;4.28;2.20;;;;;;;-2.57;76.91;100756.59;10179100;29;20111;-70
2022/01/16 22:31:36;;;;;;;4.18;2.22;;;;;;;-3.00;77.47;100698.00;10178337;29;20044;-70
2022/01/16 22:36:36;;;;;;;3.75;1.90;;;;;;;-2.35;77.46;100838.81;10178127;29;20485;-70
2022/01/16 22:41:37;;;;;;;4.88;2.13;;;;;;;-2.16;77.76;100867.41;10177937;29;20456;-70
2022/01/16 22:46:38;;;;;;;3.72;2.00;;;;;;;-2.24;77.46;100851.28;10177332;29;20432;-71
2022/01/16 22:51:39;;;;;;;4.43;2.03;;;;;;;-2.94;77.85;100751.44;10178069;29;20099;-70
2022/01/16 22:56:42;;;;;;;3.83;2.00;;;;;;;-2.53;78.00;100848.34;10176292;29;20044;-70
2022/01/16 23:01:42;;;;;;;4.50;1.85;;;;;;;-3.02;78.07;100780.38;10176798;29;20044;-70
2022/01/16 23:06:44;;;;;;;4.18;1.70;;;;;;;-3.27;78.16;100750.34;10177077;29;20515;-70
2022/01/16 23:11:46;;;;;;;4.10;2.05;;;;;;;-2.70;78.38;100843.91;10176652;29;20048;-70
2022/01/16 23:16:47;;;;;;;3.83;2.08;;;;;;;-3.81;78.28;100671.41;10176612;29;20040;-70
2022/01/16 23:21:49;;;;;;;5.40;2.60;;;;;;;-2.82;78.26;100850.50;10176449;29;20123;-70
2022/01/16 23:26:50;;;;;;;4.40;2.10;;;;;;;-3.65;78.49;100728.69;10176946;29;20036;-69
2022/01/16 23:31:50;;;;;;;4.40;2.05;;;;;;;-3.25;78.48;100812.63;10145706;29;20040;-69
2022/01/16 23:36:51;;;;;;;3.53;2.00;;;;;;;-2.80;79.19;100886.88;10148935;29;20103;-70
2022/01/16 23:41:52;;;;;;;3.85;2.20;;;;;;;-3.24;78.94;100822.94;10175680;29;20058;-69
2022/01/16 23:46:55;;;;;;;7.47;2.35;;;;;;;-3.26;79.58;100837.78;10175539;29;20424;-69
2022/01/16 23:51:55;;;;;;;4.63;2.88;;;;;;;-3.56;79.37;100788.03;10171830;29;20041;-70
2022/01/16 23:56:56;;;;;;;5.45;3.00;;;;;;;-3.04;80.11;100902.63;10135694;29;20493;-69
